Time;durP1;ratioP1;P1;durP2;ratioP2;P2;SDS_P1;SDS_P2;PMS_P1;PMS_P2;Temp;Humidity;BMP_temperature;BMP_pressure;BME280_temperature;BME280_humidity;BME280_pressure;Samples;Min_cycle;Max_cycle;Signal;HPM_P1;HPM_P2
2022/02/15 00:01:18;;;;;;;75.22;32.35;;;;;;;-0.51;62.38;97998.09;5110485;28;20464;-77
2022/02/15 00:03:43;;;;;;;78.93;31.67;;;;;;;-0.50;62.45;98004.28;5110431;28;20019;-78
2022/02/15 00:06:08;;;;;;;84.07;32.67;;;;;;;-0.52;62.67;97992.91;5110335;28;20035;-78
2022/02/15 00:08:34;;;;;;;81.32;33.95;;;;;;;-0.54;62.62;97993.16;5110501;28;20019;-78
2022/02/15 00:10:59;;;;;;;75.30;32.00;;;;;;;-0.52;62.65;97991.06;5109657;28;20028;-78
2022/02/15 00:13:25;;;;;;;75.32;31.23;;;;;;;-0.52;62.64;97998.31;5110635;28;20031;-77
2022/02/15 00:15:50;;;;;;;80.25;33.47;;;;;;;-0.50;62.42;97994.34;5110183;28;20096;-77
2022/02/15 00:18:16;;;;;;;80.43;33.15;;;;;;;-0.46;62.70;97990.13;5111698;28;20015;-77
2022/02/15 00:20:44;;;;;;;80.03;33.60;;;;;;;-0.47;62.59;97998.41;5113786;28;20475;-77
2022/02/15 00:23:09;;;;;;;92.78;36.53;;;;;;;-0.49;63.01;97997.84;5114007;28;20030;-76
2022/02/15 00:25:34;;;;;;;98.20;37.97;;;;;;;-0.52;62.62;97991.06;5094944;28;20024;-77
2022/02/15 00:28:00;;;;;;;102.43;39.65;;;;;;;-0.54;63.23;97995.03;5113600;28;20117;-77
2022/02/15 00:30:25;;;;;;;96.35;37.63;;;;;;;-0.57;63.26;97998.19;5113523;28;20019;-77
2022/02/15 00:32:51;;;;;;;87.35;36.40;;;;;;;-0.58;63.24;97988.47;5113916;28;20054;-77
2022/02/15 00:35:17;;;;;;;83.65;33.90;;;;;;;-0.56;63.49;97994.44;5113664;28;20067;-77
2022/02/15 00:37:43;;;;;;;75.05;32.17;;;;;;;-0.55;63.86;97993.38;5113664;28;20054;-77
2022/02/15 00:40:10;;;;;;;77.82;32.22;;;;;;;-0.52;63.90;97991.06;5113194;28;20483;-77
2022/02/15 00:42:36;;;;;;;67.22;30.02;;;;;;;-0.47;63.92;97995.72;5113908;28;20034;-76
2022/02/15 00:45:03;;;;;;;74.25;33.63;;;;;;;-0.46;64.16;97991.97;5113220;28;20023;-76
2022/02/15 00:47:28;;;;;;;70.25;30.73;;;;;;;-0.42;64.07;97993.16;5113193;28;20016;-76
2022/02/15 00:49:54;;;;;;;66.93;27.48;;;;;;;-0.41;64.18;97994.78;5112313;28;20035;-77
2022/02/15 00:52:19;;;;;;;62.95;26.67;;;;;;;-0.41;64.33;97988.59;5113450;28;20586;-77
2022/02/15 00:54:45;;;;;;;64.97;26.27;;;;;;;-0.40;64.21;97992.91;5112785;28;20048;-77
2022/02/15 00:57:10;;;;;;;56.85;26.15;;;;;;;-0.40;64.40;97992.91;5113162;28;20012;-77
2022/02/15 00:59:37;;;;;;;59.60;26.70;;;;;;;-0.41;65.05;97984.00;5113150;28;20058;-77
2022/02/15 01:02:03;;;;;;;63.70;25.85;;;;;;;-0.38;64.67;97986.25;5090993;28;20023;-78
2022/02/15 01:04:28;;;;;;;62.47;27.25;;;;;;;-0.35;64.96;97976.84;5112865;28;20019;-78
2022/02/15 01:06:53;;;;;;;49.97;24.45;;;;;;;-0.28;64.55;97974.03;5112522;28;20036;-78
2022/02/15 01:09:19;;;;;;;57.90;24.50;;;;;;;-0.27;64.70;97965.72;5112682;28;20030;-78
2022/02/15 01:11:45;;;;;;;61.15;25.83;;;;;;;-0.22;64.94;97963.13;5112224;28;20041;-78
2022/02/15 01:14:10;;;;;;;70.38;28.92;;;;;;;-0.13;65.18;97960.88;5112458;28;20020;-79
2022/02/15 01:16:35;;;;;;;63.83;28.02;;;;;;;-0.06;65.17;97964.25;5112483;28;20144;-78
2022/02/15 01:19:01;;;;;;;62.03;27.08;;;;;;;-0.02;64.75;97962.72;5112666;28;20019;-78
2022/02/15 01:21:26;;;;;;;55.28;25.27;;;;;;;-0.07;64.70;97961.81;5113316;28;20027;-78
2022/02/15 01:23:52;;;;;;;66.78;28.98;;;;;;;-0.13;64.46;97968.16;5112667;28;20127;-77
2022/02/15 01:26:17;;;;;;;68.38;29.20;;;;;;;-0.20;64.56;97958.31;5111962;28;20493;-77
2022/02/15 01:28:43;;;;;;;59.60;26.50;;;;;;;-0.21;64.58;97958.56;5091403;28;20031;-78
2022/02/15 01:31:09;;;;;;;56.80;24.90;;;;;;;-0.21;65.08;97956.69;5111914;28;20019;-77
2022/02/15 01:33:35;;;;;;;67.00;27.60;;;;;;;-0.19;65.09;97954.56;5111024;28;20781;-77
2022/02/15 01:36:00;;;;;;;61.88;27.73;;;;;;;-0.16;65.06;97953.25;5111394;28;20023;-78
2022/02/15 01:38:26;;;;;;;60.95;26.15;;;;;;;-0.17;64.82;97948.91;5111996;28;20058;-76
2022/02/15 01:40:52;;;;;;;56.58;26.50;;;;;;;-0.17;64.65;97947.06;5111538;28;20035;-77
2022/02/15 01:43:17;;;;;;;69.45;28.33;;;;;;;-0.17;64.58;97943.53;5111530;28;20031;-77
2022/02/15 01:45:43;;;;;;;68.50;28.27;;;;;;;-0.21;64.70;97940.50;5108810;28;20026;-77
2022/02/15 01:48:09;;;;;;;68.22;30.05;;;;;;;-0.26;64.82;97943.09;5111361;28;20054;-78
2022/02/15 01:50:34;;;;;;;67.78;28.50;;;;;;;-0.31;64.53;97946.50;5111681;28;20118;-78
2022/02/15 01:53:00;;;;;;;72.50;30.77;;;;;;;-0.31;65.01;97933.03;5111068;28;20031;-77
2022/02/15 01:55:25;;;;;;;64.72;29.38;;;;;;;-0.25;65.29;97935.84;5111343;28;20027;-77
2022/02/15 01:57:51;;;;;;;67.75;29.67;;;;;;;-0.20;65.30;97930.53;5111418;28;20024;-77
2022/02/15 02:00:18;;;;;;;75.57;32.55;;;;;;;-0.13;65.00;97936.59;5111313;28;20015;-77
2022/02/15 02:02:44;;;;;;;82.82;34.47;;;;;;;-0.09;65.18;97937.75;5109113;28;20015;-77
2022/02/15 02:07:54;;;;;;;73.68;32.38;;;;;;;-0.05;64.87;97938.91;5110926;28;20027;-78
2022/02/15 02:10:20;;;;;;;74.28;32.75;;;;;;;-0.11;64.78;97936.38;5111188;28;20042;-78
2022/02/15 02:12:46;;;;;;;72.78;30.33;;;;;;;-0.20;65.07;97925.97;5111441;28;20474;-78
2022/02/15 02:15:22;;;;;;;71.15;31.27;;;;;;;-0.28;64.91;97929.03;5111074;28;20596;-78
2022/02/15 02:17:48;;;;;;;70.43;30.27;;;;;;;-0.36;64.73;97932.94;5108679;28;20035;-77
2022/02/15 02:20:15;;;;;;;66.43;29.35;;;;;;;-0.43;64.39;97931.44;5111223;28;20053;-78
2022/02/15 02:22:41;;;;;;;71.15;32.28;;;;;;;-0.51;64.85;97935.28;5111216;28;20055;-77
2022/02/15 02:25:08;;;;;;;76.47;32.78;;;;;;;-0.62;64.71;97937.78;5110785;28;20031;-78
2022/02/15 02:27:33;;;;;;;71.03;31.05;;;;;;;-0.66;65.07;97938.47;5110414;28;20494;-78
2022/02/15 02:29:59;;;;;;;61.53;28.10;;;;;;;-0.69;65.91;97928.19;5110983;28;20055;-78
2022/02/15 02:32:28;;;;;;;61.47;26.02;;;;;;;-0.66;65.93;97944.69;5111333;28;20020;-78
2022/02/15 02:34:55;;;;;;;59.10;27.50;;;;;;;-0.63;65.87;97946.09;5111113;28;20023;-78
2022/02/15 02:37:21;;;;;;;55.15;25.48;;;;;;;-0.61;66.09;97931.31;5110850;28;20118;-78
2022/02/15 02:39:48;;;;;;;48.90;23.65;;;;;;;-0.58;65.91;97939.97;5111049;28;20094;-78
2022/02/15 02:42:17;;;;;;;48.97;24.85;;;;;;;-0.57;66.14;97942.47;5090969;28;20076;-78
2022/02/15 02:44:44;;;;;;;49.80;23.27;;;;;;;-0.57;65.78;97947.00;5092739;28;20023;-78
2022/02/15 02:47:09;;;;;;;56.08;25.75;;;;;;;-0.57;66.08;97939.75;5110541;28;20028;-78
2022/02/15 02:49:36;;;;;;;46.72;22.25;;;;;;;-0.58;66.63;97945.38;5110883;28;20077;-78
2022/02/15 02:52:02;;;;;;;49.35;22.58;;;;;;;-0.56;66.38;97929.78;5110557;28;20098;-78
2022/02/15 02:54:28;;;;;;;46.67;23.95;;;;;;;-0.53;66.76;97938.25;5110494;28;20040;-78
2022/02/15 02:56:54;;;;;;;47.78;24.67;;;;;;;-0.48;66.64;97940.22;5110512;28;20042;-78
2022/02/15 02:59:20;;;;;;;54.65;25.15;;;;;;;-0.45;67.08;97939.75;5110848;28;20024;-78
2022/02/15 03:01:46;;;;;;;49.40;24.55;;;;;;;-0.40;67.34;97939.00;5110828;28;20028;-77
2022/02/15 03:04:11;;;;;;;57.85;28.05;;;;;;;-0.35;67.28;97933.72;5110778;28;20383;-77
2022/02/15 03:06:37;;;;;;;59.78;28.55;;;;;;;-0.26;67.31;97931.50;5110181;28;20023;-78
2022/02/15 03:09:03;;;;;;;62.53;28.60;;;;;;;-0.19;67.11;97938.38;5110935;28;20042;-78
2022/02/15 03:11:28;;;;;;;58.33;29.23;;;;;;;-0.07;67.28;97929.44;5089963;28;20031;-78
2022/02/15 03:13:54;;;;;;;63.97;29.27;;;;;;;0.01;67.49;97939.03;5110743;28;20028;-78
2022/02/15 03:16:22;;;;;;;64.43;29.42;;;;;;;0.07;67.29;97943.47;5110164;28;20038;-78
2022/02/15 03:18:48;;;;;;;58.90;27.80;;;;;;;0.08;66.90;97947.78;5110586;28;20030;-78
2022/02/15 03:21:13;;;;;;;54.70;26.55;;;;;;;0.02;66.64;97956.84;5110382;28;20024;-78
2022/02/15 03:23:39;;;;;;;51.78;25.85;;;;;;;-0.08;66.76;97960.97;5110557;28;20407;-78
2022/02/15 03:26:04;;;;;;;54.95;25.88;;;;;;;-0.17;66.91;97963.22;5107545;28;20051;-78
2022/02/15 03:28:30;;;;;;;56.75;26.70;;;;;;;-0.22;66.77;97962.31;5110329;28;20023;-78
2022/02/15 03:30:55;;;;;;;58.97;27.63;;;;;;;-0.27;67.31;97963.00;5110348;28;20047;-78
2022/02/15 03:33:20;;;;;;;61.33;30.08;;;;;;;-0.27;67.12;97959.50;5110249;28;20024;-77
2022/02/15 03:35:46;;;;;;;54.95;26.25;;;;;;;-0.31;67.20;97968.06;5110273;28;20046;-78
2022/02/15 03:38:11;;;;;;;52.00;26.52;;;;;;;-0.28;67.65;97964.06;5091649;28;20027;-78
2022/02/15 03:43:20;;;;;;;48.33;24.40;;;;;;;-0.20;67.64;97960.19;5109802;28;20047;-78
2022/02/15 03:45:48;;;;;;;45.97;23.65;;;;;;;-0.13;67.83;97962.75;5110138;28;20499;-78
2022/02/15 03:48:13;;;;;;;46.47;23.45;;;;;;;-0.10;67.90;97962.28;5109501;28;20028;-78
2022/02/15 03:50:39;;;;;;;49.47;25.85;;;;;;;-0.06;68.18;97949.97;5110200;28;20027;-78
2022/02/15 03:53:04;;;;;;;49.95;23.65;;;;;;;0.04;67.93;97958.22;5111231;28;20039;-78
2022/02/15 03:55:30;;;;;;;52.67;25.75;;;;;;;0.07;68.00;97946.16;5114222;28;20472;-78
2022/02/15 03:57:56;;;;;;;55.50;28.42;;;;;;;0.12;67.95;97938.97;5114684;28;20019;-78
2022/02/15 04:00:21;;;;;;;57.90;27.48;;;;;;;0.18;68.55;97948.00;5114844;28;20020;-78
2022/02/15 04:02:47;;;;;;;58.95;27.17;;;;;;;0.21;67.83;97942.09;5114987;28;20475;-78
2022/02/15 04:05:12;;;;;;;61.85;29.50;;;;;;;0.16;67.60;97947.41;5093376;28;20028;-78
2022/02/15 04:07:38;;;;;;;65.18;30.40;;;;;;;0.12;67.74;97947.06;5114178;28;20019;-77
2022/02/15 04:10:05;;;;;;;57.78;29.90;;;;;;;0.12;67.81;97951.66;5114507;28;20110;-78
2022/02/15 04:12:31;;;;;;;54.42;25.85;;;;;;;0.08;67.90;97943.22;5114150;28;20421;-76
2022/02/15 04:14:56;;;;;;;51.55;25.60;;;;;;;0.05;67.79;97942.88;5076586;28;20028;-78
2022/02/15 04:17:22;;;;;;;49.97;25.35;;;;;;;0.01;67.91;97947.91;5113896;28;20040;-78
2022/02/15 04:19:47;;;;;;;55.95;25.27;;;;;;;-0.03;68.30;97942.19;5114164;28;20020;-77
2022/02/15 04:22:13;;;;;;;49.88;24.63;;;;;;;-0.05;68.31;97946.22;5113860;28;20034;-78
2022/02/15 04:24:38;;;;;;;52.90;25.42;;;;;;;-0.06;68.72;97941.88;5114379;28;20116;-77
2022/02/15 04:27:04;;;;;;;50.58;25.17;;;;;;;-0.07;68.44;97942.94;5114746;28;20023;-78
2022/02/15 04:29:29;;;;;;;54.83;25.38;;;;;;;-0.05;68.73;97943.50;5114539;28;20406;-78
2022/02/15 04:31:55;;;;;;;53.08;27.08;;;;;;;-0.07;68.35;97957.22;5114613;28;20020;-78
2022/02/15 04:34:20;;;;;;;57.40;27.27;;;;;;;-0.08;68.74;97954.78;5092547;28;20119;-78
2022/02/15 04:36:46;;;;;;;51.55;23.35;;;;;;;-0.09;68.58;97956.63;5113688;28;20046;-77
2022/02/15 04:39:14;;;;;;;52.55;25.67;;;;;;;-0.08;68.64;97952.06;5113625;28;20027;-78
2022/02/15 04:41:40;;;;;;;54.10;25.85;;;;;;;-0.09;68.74;97959.31;5113743;28;20446;-78
2022/02/15 04:44:06;;;;;;;55.40;27.13;;;;;;;-0.15;68.95;97957.59;5114228;28;20102;-77
2022/02/15 04:46:32;;;;;;;59.78;28.33;;;;;;;-0.19;69.33;97964.50;5113591;28;20106;-78
2022/02/15 04:48:59;;;;;;;53.50;29.08;;;;;;;-0.25;69.08;97970.88;5114006;28;20019;-78
2022/02/15 04:51:25;;;;;;;56.38;29.30;;;;;;;-0.31;68.96;97973.47;5114049;28;20027;-77
2022/02/15 04:53:51;;;;;;;58.83;28.90;;;;;;;-0.36;68.85;97973.34;5113916;28;20071;-78
2022/02/15 04:56:17;;;;;;;59.00;27.60;;;;;;;-0.38;69.29;97975.47;5109696;28;20115;-77
2022/02/15 04:58:42;;;;;;;54.60;25.85;;;;;;;-0.41;69.76;97984.00;5112575;28;20055;-78
2022/02/15 05:01:07;;;;;;;55.25;27.38;;;;;;;-0.40;69.59;97982.97;5092375;28;20028;-78
2022/02/15 05:03:34;;;;;;;51.35;27.20;;;;;;;-0.39;69.59;97981.91;5112918;28;20463;-78
2022/02/15 05:05:59;;;;;;;64.05;30.10;;;;;;;-0.41;69.81;97988.59;5113864;28;20031;-77
2022/02/15 05:08:25;;;;;;;55.10;27.35;;;;;;;-0.43;70.28;97979.94;5112327;28;20034;-78
2022/02/15 05:10:50;;;;;;;58.85;26.63;;;;;;;-0.42;70.04;97984.25;5112495;28;20110;-77
2022/02/15 05:13:15;;;;;;;58.80;27.23;;;;;;;-0.42;70.21;97981.56;5112425;28;20042;-78
2022/02/15 05:15:41;;;;;;;54.33;26.00;;;;;;;-0.44;69.98;97979.09;5112386;28;20032;-78
2022/02/15 05:18:07;;;;;;;58.50;26.80;;;;;;;-0.41;70.23;97984.00;5112256;28;20032;-77
2022/02/15 05:20:33;;;;;;;56.15;28.45;;;;;;;-0.40;70.23;97985.66;5112992;28;20030;-78
2022/02/15 05:22:59;;;;;;;56.35;27.73;;;;;;;-0.39;69.98;97992.69;5113265;28;20046;-77
2022/02/15 05:25:24;;;;;;;56.30;27.52;;;;;;;-0.33;70.41;97990.91;5112763;28;20423;-78
2022/02/15 05:27:51;;;;;;;59.95;28.45;;;;;;;-0.26;70.37;97993.50;5112149;28;20490;-78
2022/02/15 05:30:17;;;;;;;55.65;27.95;;;;;;;-0.17;70.72;97990.19;5112495;28;20479;-77
2022/02/15 05:32:42;;;;;;;59.65;30.23;;;;;;;-0.08;70.83;97993.31;5113162;28;20020;-78
2022/02/15 05:35:09;;;;;;;81.03;34.92;;;;;;;-0.01;70.58;97995.91;5113278;28;20062;-75
2022/02/15 05:37:35;;;;;;;117.35;47.78;;;;;;;0.05;70.67;97991.41;5112751;28;20053;-77
2022/02/15 05:40:01;;;;;;;99.75;43.53;;;;;;;0.10;70.63;97991.53;5094757;28;20028;-77
2022/02/15 05:42:26;;;;;;;88.53;40.95;;;;;;;0.13;70.81;97982.97;5113125;28;20104;-77
2022/02/15 05:44:52;;;;;;;85.63;37.00;;;;;;;0.16;70.84;97984.34;5112963;28;20471;-77
2022/02/15 05:47:17;;;;;;;74.05;35.22;;;;;;;0.24;71.49;97989.34;5112981;28;20023;-77
2022/02/15 05:52:27;;;;;;;77.63;34.72;;;;;;;0.37;71.20;98004.44;5111554;28;20400;-76
2022/02/15 05:54:52;;;;;;;61.65;29.85;;;;;;;0.42;71.75;97997.25;5112163;28;20043;-77
2022/02/15 05:57:17;;;;;;;67.45;32.25;;;;;;;0.50;72.55;98009.53;5112183;28;20039;-76
2022/02/15 05:59:43;;;;;;;68.80;32.00;;;;;;;0.56;72.42;98018.53;5111924;28;20020;-77
2022/02/15 06:02:09;;;;;;;67.00;32.67;;;;;;;0.57;72.44;98010.22;5112115;28;20015;-76
2022/02/15 06:04:34;;;;;;;65.32;32.72;;;;;;;0.61;72.31;98010.53;5093934;28;20515;-76
2022/02/15 06:07:00;;;;;;;67.00;31.63;;;;;;;0.63;71.97;98011.13;5111621;28;20099;-76
2022/02/15 06:09:25;;;;;;;68.07;32.53;;;;;;;0.61;71.97;98009.75;5112202;28;20110;-77
2022/02/15 06:11:51;;;;;;;73.75;33.75;;;;;;;0.55;71.92;98012.34;5111323;28;20032;-76
2022/02/15 06:14:16;;;;;;;70.57;32.25;;;;;;;0.55;72.04;98014.22;5112631;28;20024;-76
2022/02/15 06:16:42;;;;;;;75.93;35.25;;;;;;;0.52;71.72;98014.69;5111056;28;20058;-76
2022/02/15 06:19:07;;;;;;;74.07;32.55;;;;;;;0.49;71.84;98020.56;5093908;28;20038;-75
2022/02/15 06:21:33;;;;;;;69.45;32.45;;;;;;;0.44;72.18;98018.59;5111733;28;20024;-75
2022/02/15 06:23:59;;;;;;;71.40;32.88;;;;;;;0.42;72.29;98024.22;5112357;28;20027;-75
2022/02/15 06:26:24;;;;;;;75.40;35.03;;;;;;;0.43;73.10;98038.53;5111915;28;20103;-75
2022/02/15 06:28:49;;;;;;;73.97;35.33;;;;;;;0.46;72.30;98045.31;5111739;28;20016;-76
2022/02/15 06:31:15;;;;;;;70.63;32.78;;;;;;;0.53;72.96;98052.25;5111530;28;20035;-76
2022/02/15 06:33:40;;;;;;;81.80;35.08;;;;;;;0.63;72.67;98050.78;5111845;28;21573;-76
2022/02/15 06:36:06;;;;;;;72.50;34.33;;;;;;;0.77;73.08;98048.63;5093512;28;20030;-76
2022/02/15 06:38:31;;;;;;;65.13;33.92;;;;;;;0.86;72.36;98061.47;5111359;28;20488;-75
2022/02/15 06:40:57;;;;;;;67.57;34.50;;;;;;;0.92;72.86;98065.06;5092908;28;20030;-76
2022/02/15 06:43:22;;;;;;;65.63;34.92;;;;;;;0.97;72.43;98073.28;5092157;28;20020;-76
2022/02/15 06:45:48;;;;;;;66.30;32.47;;;;;;;1.06;72.94;98075.56;5111599;28;20107;-76
2022/02/15 06:48:13;;;;;;;60.50;29.65;;;;;;;1.14;72.52;98076.00;5110829;28;20482;-77
2022/02/15 06:50:39;;;;;;;65.15;30.77;;;;;;;1.22;73.04;98079.34;5110965;28;20016;-77
2022/02/15 06:53:05;;;;;;;64.43;32.08;;;;;;;1.30;72.79;98082.47;5111139;28;20075;-77
2022/02/15 06:55:31;;;;;;;66.13;33.17;;;;;;;1.40;72.97;98084.53;5111395;28;20031;-77
2022/02/15 06:57:56;;;;;;;59.97;29.80;;;;;;;1.53;72.98;98075.28;5091661;28;20021;-76
2022/02/15 07:00:22;;;;;;;61.53;31.90;;;;;;;1.68;73.07;98077.38;5110634;28;20027;-76
2022/02/15 07:02:47;;;;;;;63.38;34.67;;;;;;;1.84;73.48;98081.13;5111076;28;20028;-76
2022/02/15 07:05:12;;;;;;;68.80;35.78;;;;;;;1.99;73.50;98077.81;5110466;28;20051;-76
2022/02/15 07:07:38;;;;;;;70.80;37.13;;;;;;;2.12;73.11;98078.53;5110919;28;20055;-77
2022/02/15 07:10:05;;;;;;;62.53;32.45;;;;;;;2.18;73.59;98080.25;5107987;28;20055;-77
2022/02/15 07:12:31;;;;;;;63.45;31.50;;;;;;;2.23;73.41;98083.81;5110961;28;20016;-77
2022/02/15 07:14:57;;;;;;;67.28;31.95;;;;;;;2.29;73.21;98083.88;5111001;28;20054;-77
2022/02/15 07:17:24;;;;;;;63.38;31.50;;;;;;;2.35;73.27;98082.88;5110388;28;20483;-79
2022/02/15 07:19:50;;;;;;;70.22;32.13;;;;;;;2.43;73.45;98092.44;5111039;28;20416;-77
2022/02/15 07:22:15;;;;;;;67.90;32.97;;;;;;;2.48;73.27;98082.47;5110321;28;20098;-76
2022/02/15 07:24:41;;;;;;;57.38;28.00;;;;;;;2.54;73.05;98091.50;5110658;28;20098;-77
2022/02/15 07:27:06;;;;;;;64.18;32.60;;;;;;;2.56;73.39;98094.78;5111600;28;20019;-76
2022/02/15 07:29:32;;;;;;;61.42;30.95;;;;;;;2.58;73.46;98105.34;5114817;28;20015;-77
2022/02/15 07:31:57;;;;;;;59.42;29.65;;;;;;;2.62;73.60;98106.47;5095330;28;20245;-77
2022/02/15 07:34:23;;;;;;;57.47;29.25;;;;;;;2.64;73.56;98105.16;5115422;28;20028;-77
2022/02/15 07:36:52;;;;;;;63.70;28.98;;;;;;;2.67;72.79;98099.22;5109626;28;20032;-76
2022/02/15 07:39:17;;;;;;;61.33;29.67;;;;;;;2.68;73.42;98097.34;5114683;28;20035;-78
2022/02/15 07:41:43;;;;;;;67.15;30.70;;;;;;;2.74;73.28;98103.63;5114577;28;20023;-77
2022/02/15 07:44:08;;;;;;;58.85;28.90;;;;;;;2.81;73.36;98104.25;5111078;28;20088;-76
2022/02/15 07:46:34;;;;;;;54.28;26.15;;;;;;;2.90;73.03;98107.31;5110555;28;20027;-77
2022/02/15 07:48:59;;;;;;;54.03;27.40;;;;;;;2.97;73.77;98116.91;5114570;28;20499;-77
2022/02/15 07:51:25;;;;;;;58.90;27.98;;;;;;;3.05;73.49;98112.91;5114155;28;20020;-77
2022/02/15 07:53:50;;;;;;;54.10;27.50;;;;;;;3.15;72.92;98117.59;5091006;28;20044;-76
2022/02/15 07:56:16;;;;;;;58.55;28.73;;;;;;;3.25;73.24;98120.41;5113712;28;20187;-78
2022/02/15 07:58:41;;;;;;;61.90;29.83;;;;;;;3.37;72.35;98114.03;5115250;28;20031;-77
2022/02/15 08:01:07;;;;;;;64.55;30.00;;;;;;;3.46;72.55;98115.19;5112645;28;20464;-76
2022/02/15 08:03:32;;;;;;;61.53;28.25;;;;;;;3.55;72.29;98102.78;5110835;28;20023;-78
2022/02/15 08:05:58;;;;;;;57.17;27.45;;;;;;;3.66;72.16;98105.56;5114232;28;20055;-79
2022/02/15 08:08:23;;;;;;;64.97;30.33;;;;;;;3.78;71.28;98114.34;5112759;28;20055;-76
2022/02/15 08:10:49;;;;;;;64.07;27.80;;;;;;;3.91;71.64;98115.78;5113650;28;20031;-76
2022/02/15 08:13:18;;;;;;;60.35;27.88;;;;;;;4.05;71.22;98113.44;5113617;28;20479;-78
2022/02/15 08:15:48;;;;;;;57.80;27.47;;;;;;;4.20;70.62;98117.34;5114134;28;20031;-78
2022/02/15 08:18:15;;;;;;;58.78;27.48;;;;;;;4.38;70.70;98116.88;5113931;28;20043;-78
2022/02/15 08:20:40;;;;;;;51.08;24.65;;;;;;;4.58;70.58;98113.44;5114002;28;20069;-78
2022/02/15 08:23:05;;;;;;;53.90;27.92;;;;;;;4.74;70.04;98105.34;5113734;28;20027;-78
2022/02/15 08:25:31;;;;;;;61.90;28.02;;;;;;;4.85;69.54;98100.75;5113364;28;20035;-78
2022/02/15 08:27:57;;;;;;;53.90;26.50;;;;;;;4.90;69.42;98089.91;5113565;28;20039;-78
2022/02/15 08:30:23;;;;;;;52.65;26.02;;;;;;;4.93;68.83;98100.25;5093004;28;20020;-78
2022/02/15 08:32:48;;;;;;;59.60;27.23;;;;;;;4.95;68.47;98095.34;5114197;28;20036;-78
2022/02/15 08:35:15;;;;;;;61.22;29.00;;;;;;;5.00;68.85;98108.13;5111248;28;20463;-81
2022/02/15 08:37:41;;;;;;;57.60;26.50;;;;;;;5.08;68.55;98104.88;5113448;28;20106;-77
2022/02/15 08:40:07;;;;;;;52.35;22.95;;;;;;;5.13;67.53;98101.34;5112823;28;20047;-78
2022/02/15 08:42:33;;;;;;;54.47;24.90;;;;;;;5.16;67.46;98104.38;5093307;28;20054;-77
2022/02/15 08:44:59;;;;;;;49.47;21.55;;;;;;;5.18;67.89;98112.22;5092063;28;20059;-79
2022/02/15 08:47:25;;;;;;;45.92;21.90;;;;;;;5.24;66.79;98118.53;5113264;28;20024;-78
2022/02/15 08:49:52;;;;;;;43.63;21.35;;;;;;;5.29;67.44;98122.06;5113934;28;20432;-78
2022/02/15 08:52:19;;;;;;;44.83;21.40;;;;;;;5.31;66.84;98119.88;5113426;28;20016;-78
2022/02/15 08:54:46;;;;;;;43.65;21.17;;;;;;;5.34;66.79;98113.91;5109685;28;21710;-79
2022/02/15 08:57:11;;;;;;;42.42;19.80;;;;;;;5.40;66.43;98120.16;5111753;28;20130;-80
2022/02/15 08:59:37;;;;;;;34.95;18.60;;;;;;;5.49;66.52;98125.91;5112923;28;20107;-79
2022/02/15 09:02:03;;;;;;;33.08;18.67;;;;;;;5.56;66.42;98117.44;5112869;28;20023;-78
2022/02/15 09:04:28;;;;;;;35.75;18.20;;;;;;;5.62;65.89;98111.72;5112724;28;20027;-76
2022/02/15 09:06:54;;;;;;;33.90;17.60;;;;;;;5.66;65.70;98112.81;5113163;28;20016;-77
2022/02/15 09:09:20;;;;;;;39.17;21.77;;;;;;;5.69;65.84;98110.66;5113131;28;20020;-77
2022/02/15 09:11:45;;;;;;;36.25;20.63;;;;;;;5.72;65.56;98115.53;5113027;28;20365;-79
2022/02/15 09:14:11;;;;;;;35.10;18.77;;;;;;;5.75;64.84;98121.25;5092834;28;20387;-76
2022/02/15 09:16:38;;;;;;;32.72;18.65;;;;;;;5.79;65.26;98118.81;5112257;28;20244;-79
2022/02/15 09:19:04;;;;;;;35.08;18.77;;;;;;;5.88;65.28;98124.50;5090932;28;20098;-78
2022/02/15 09:21:29;;;;;;;33.80;18.33;;;;;;;5.94;65.31;98126.94;5112708;28;20031;-79
2022/02/15 09:23:54;;;;;;;29.52;17.58;;;;;;;5.97;64.68;98118.22;5112185;28;20023;-78
2022/02/15 09:26:20;;;;;;;32.88;18.08;;;;;;;6.06;64.83;98124.00;5109135;28;20069;-78
2022/02/15 09:28:45;;;;;;;32.75;17.75;;;;;;;6.10;64.49;98133.25;5106568;27;20031;-77
2022/02/15 09:31:10;;;;;;;34.75;17.60;;;;;;;6.11;64.98;98134.84;5113655;27;20035;-77
2022/02/15 09:33:36;;;;;;;35.78;17.83;;;;;;;6.14;64.96;98136.22;5109274;28;20035;-77
2022/02/15 09:36:02;;;;;;;32.28;16.60;;;;;;;6.16;64.67;98142.22;5101366;27;20031;-77
2022/02/15 09:38:27;;;;;;;33.05;16.70;;;;;;;6.16;64.31;98142.22;5109448;28;20027;-75
2022/02/15 09:40:53;;;;;;;31.25;17.23;;;;;;;6.17;63.95;98149.28;5108282;28;20080;-77
2022/02/15 09:43:18;;;;;;;30.30;16.42;;;;;;;6.20;63.88;98151.47;5106261;28;20741;-80
2022/02/15 09:45:48;;;;;;;29.50;16.13;;;;;;;6.27;64.28;98148.44;5110051;28;20020;-77
2022/02/15 09:48:16;;;;;;;;;;;;;;;6.32;63.54;98153.06;5109859;28;20024;-75
2022/02/15 09:50:42;;;;;;;26.58;13.95;;;;;;;6.34;63.02;98154.44;5107418;27;19976;-78
2022/02/15 09:53:07;;;;;;;26.65;13.43;;;;;;;6.37;63.22;98151.16;5108888;28;20622;-76
2022/02/15 09:55:34;;;;;;;24.90;15.27;;;;;;;6.40;63.37;98155.22;5110776;27;20580;-78
2022/02/15 09:58:00;;;;;;;26.73;15.13;;;;;;;6.45;63.26;98151.69;5110406;27;20031;-75
2022/02/15 10:00:25;;;;;;;24.42;13.93;;;;;;;6.47;62.83;98146.78;5112524;27;20399;-75
2022/02/15 10:02:52;;;;;;;22.83;14.40;;;;;;;6.51;63.18;98147.84;5088956;27;20055;-76
2022/02/15 10:05:19;;;;;;;25.65;15.95;;;;;;;6.58;63.77;98151.06;5110167;27;20035;-76
2022/02/15 10:08:03;;;;;;;31.50;16.55;;;;;;;6.66;63.02;98153.25;5106376;28;20049;-76
2022/02/15 10:10:36;;;;;;;27.98;16.38;;;;;;;6.72;62.41;98150.50;5109317;28;20019;-76
2022/02/15 10:13:10;;;;;;;29.45;16.98;;;;;;;6.74;62.80;98149.09;5108272;28;20616;-75
2022/02/15 10:15:41;;;;;;;29.63;16.50;;;;;;;6.77;62.24;98147.75;5107313;27;20070;-77
2022/02/15 10:18:14;;;;;;;26.05;15.30;;;;;;;6.83;63.04;98143.91;5109054;28;20031;-76
2022/02/15 10:20:45;;;;;;;23.80;15.15;;;;;;;6.93;62.82;98145.78;5108238;28;20054;-77
2022/02/15 10:23:34;;;;;;;28.10;16.02;;;;;;;6.99;62.18;98155.56;5107523;28;20081;-79
2022/02/15 10:26:00;;;;;;;26.58;15.55;;;;;;;6.96;61.46;98147.94;5105387;28;20040;-75
2022/02/15 10:28:28;;;;;;;32.58;16.42;;;;;;;6.96;61.58;98140.56;5109460;28;20032;-77
2022/02/15 10:30:56;;;;;;;25.58;15.43;;;;;;;6.99;61.71;98150.91;5106772;28;20050;-76
2022/02/15 10:33:37;;;;;;;25.05;14.48;;;;;;;7.01;61.74;98145.19;5108426;28;20027;-77
2022/02/15 10:36:09;;;;;;;26.65;15.45;;;;;;;7.09;61.89;98146.50;5109883;27;20027;-76
2022/02/15 10:38:38;;;;;;;23.83;14.95;;;;;;;7.18;61.62;98152.19;5108363;28;20024;-76
2022/02/15 10:41:06;;;;;;;27.70;15.50;;;;;;;7.29;61.32;98154.59;5107807;28;20099;-78
2022/02/15 10:43:50;;;;;;;26.50;15.05;;;;;;;7.41;60.72;98151.50;5109935;28;20019;-79
2022/02/15 10:46:18;;;;;;;25.88;15.90;;;;;;;7.59;61.13;98152.75;5109760;28;20133;-76
2022/02/15 10:48:45;;;;;;;26.80;15.90;;;;;;;7.80;61.07;98154.50;5109515;28;20015;-78
2022/02/15 10:51:13;;;;;;;24.13;13.57;;;;;;;8.09;61.24;98151.81;5107680;27;20106;-79
2022/02/15 10:53:43;;;;;;;22.42;12.75;;;;;;;8.35;58.62;98157.81;5108905;28;20047;-78
2022/02/15 10:56:09;;;;;;;28.33;14.40;;;;;;;8.44;58.21;98154.44;5109920;28;20076;-73
2022/02/15 10:58:35;;;;;;;24.88;14.18;;;;;;;8.54;57.51;98159.84;5107805;27;20028;-74
2022/02/15 11:01:03;;;;;;;23.88;13.82;;;;;;;8.63;57.88;98152.63;5107398;28;20028;-74
2022/02/15 11:03:30;;;;;;;24.38;13.43;;;;;;;8.69;57.65;98153.38;5107570;28;20054;-75
2022/02/15 11:05:56;;;;;;;24.08;13.55;;;;;;;8.75;57.17;98160.44;5102958;28;20035;-71
2022/02/15 11:08:23;;;;;;;22.15;12.52;;;;;;;8.78;57.20;98148.91;5108515;28;20039;-83
2022/02/15 11:11:04;;;;;;;22.60;13.02;;;;;;;8.83;56.66;98144.47;5108459;28;20109;-73
2022/02/15 11:13:30;;;;;;;24.65;14.30;;;;;;;8.92;56.50;98154.47;5106038;28;20031;-75
2022/02/15 11:15:56;;;;;;;21.70;13.13;;;;;;;8.98;57.72;98154.41;5108992;28;20027;-74
2022/02/15 11:18:30;;;;;;;21.05;13.52;;;;;;;9.02;56.28;98147.25;5109822;28;20107;-73
2022/02/15 11:20:59;;;;;;;20.95;12.82;;;;;;;9.07;57.06;98152.66;5108715;28;20380;-74
2022/02/15 11:23:31;;;;;;;24.60;13.93;;;;;;;9.04;56.37;98155.97;5108679;28;20019;-76
2022/02/15 11:26:15;;;;;;;25.33;14.40;;;;;;;8.91;55.60;98150.09;5108475;28;20027;-75